Time;durP1;ratioP1;P1;durP2;ratioP2;P2;SDS_P1;SDS_P2;PMS_P1;PMS_P2;Temp;Humidity;BMP_temperature;BMP_pressure;BME280_temperature;BME280_humidity;BME280_pressure;Samples;Min_cycle;Max_cycle;Signal;HPM_P1;HPM_P2
2023/06/25 00:00:35;;;;;;;15.10;13.70;;;18.10;99.90;;;;;;5056575;27;94698;-34
2023/06/25 00:03:01;;;;;;;19.40;14.85;;;18.00;99.90;;;;;;5054675;27;95429;-34
2023/06/25 00:05:26;;;;;;;17.33;13.60;;;18.10;99.90;;;;;;5056114;27;95690;-34
2023/06/25 00:07:52;;;;;;;14.38;12.80;;;18.10;99.90;;;;;;5036901;27;92796;-36
2023/06/25 00:10:18;;;;;;;15.48;13.88;;;18.10;99.90;;;;;;5055675;27;94412;-34
2023/06/25 00:12:44;;;;;;;15.43;13.82;;;18.00;99.90;;;;;;5055402;27;95178;-38
2023/06/25 00:15:11;;;;;;;14.55;13.15;;;18.00;99.90;;;;;;5055576;27;94591;-40
2023/06/25 00:17:37;;;;;;;18.73;15.60;;;18.00;99.90;;;;;;5037585;27;94848;-37
2023/06/25 00:20:03;;;;;;;15.68;13.40;;;18.00;99.90;;;;;;5057513;27;91749;-35
2023/06/25 00:22:29;;;;;;;16.27;13.48;;;17.90;99.90;;;;;;5058020;27;94741;-39
2023/06/25 00:24:55;;;;;;;16.88;13.57;;;17.90;99.90;;;;;;5059024;27;95240;-36
2023/06/25 00:27:20;;;;;;;15.38;13.73;;;17.80;99.90;;;;;;5058285;27;94567;-39
2023/06/25 00:29:46;;;;;;;16.45;14.60;;;17.80;99.90;;;;;;5059014;27;93236;-34
2023/06/25 00:32:15;;;;;;;17.00;15.20;;;17.80;99.90;;;;;;5058209;27;95396;-38
2023/06/25 00:34:41;;;;;;;16.48;14.25;;;17.80;99.90;;;;;;5057528;27;94738;-40
2023/06/25 00:37:16;;;;;;;17.58;14.85;;;17.80;99.90;;;;;;5059004;27;92673;-34
2023/06/25 00:39:46;;;;;;;17.13;12.88;;;17.70;99.90;;;;;;5040840;27;92119;-35
2023/06/25 00:42:13;;;;;;;20.65;14.13;;;17.70;99.90;;;;;;5045281;27;94486;-34
2023/06/25 00:44:42;;;;;;;18.00;14.82;;;17.70;99.90;;;;;;5059044;27;94444;-34
2023/06/25 00:47:12;;;;;;;21.67;15.57;;;17.70;99.90;;;;;;5058194;27;94410;-42
2023/06/25 00:49:39;;;;;;;17.85;15.05;;;17.60;99.90;;;;;;5058330;27;92158;-33
2023/06/25 00:52:08;;;;;;;20.08;15.88;;;17.70;99.90;;;;;;5058158;27;95834;-37
2023/06/25 00:54:37;;;;;;;16.98;14.95;;;17.60;99.90;;;;;;5044709;27;95434;-35
2023/06/25 00:57:05;;;;;;;17.73;14.05;;;17.70;99.90;;;;;;5058625;27;94820;-44
2023/06/25 00:59:31;;;;;;;17.40;14.33;;;17.60;99.90;;;;;;5058512;27;93442;-40
2023/06/25 01:02:03;;;;;;;16.10;12.85;;;17.60;99.90;;;;;;5057898;27;95662;-36
2023/06/25 01:04:37;;;;;;;17.60;14.82;;;17.60;99.90;;;;;;5058613;27;94209;-34
2023/06/25 01:07:11;;;;;;;21.30;15.63;;;17.50;99.90;;;;;;5058962;27;93105;-40
2023/06/25 01:09:38;;;;;;;16.10;13.75;;;17.50;99.90;;;;;;5058971;27;94004;-34
2023/06/25 01:12:05;;;;;;;17.95;14.52;;;17.50;99.90;;;;;;5058359;27;93895;-33
2023/06/25 01:14:33;;;;;;;21.92;17.27;;;17.50;99.90;;;;;;5058065;27;94838;-41
2023/06/25 01:16:59;;;;;;;;;;;17.40;99.90;;;;;;5058711;27;95111;-38
2023/06/25 01:19:29;;;;;;;20.08;15.35;;;17.40;99.90;;;;;;5060122;27;92990;-35
2023/06/25 01:22:03;;;;;;;17.73;15.40;;;17.40;99.90;;;;;;5057497;27;93999;-37
2023/06/25 01:24:30;;;;;;;19.05;15.80;;;17.40;99.90;;;;;;5045247;27;94848;-39
2023/06/25 01:26:59;;;;;;;20.35;16.15;;;17.30;99.90;;;;;;5058528;27;92119;-40
2023/06/25 01:29:26;;;;;;;23.33;17.17;;;17.30;99.90;;;;;;5057844;27;93998;-33
2023/06/25 01:31:53;;;;;;;17.30;14.77;;;17.30;99.90;;;;;;5055133;27;95072;-41
2023/06/25 01:34:21;;;;;;;20.92;17.33;;;17.30;99.90;;;;;;5057682;27;95330;-37
2023/06/25 01:36:51;;;;;;;20.48;16.88;;;17.30;99.90;;;;;;5058771;27;93527;-33
2023/06/25 01:39:18;;;;;;;21.20;17.30;;;17.20;99.90;;;;;;5058751;27;94709;-32
2023/06/25 01:41:44;;;;;;;22.17;17.67;;;17.20;99.90;;;;;;5057241;27;95947;-39
2023/06/25 01:44:21;;;;;;;20.20;15.57;;;17.20;99.90;;;;;;5056928;27;95027;-33
2023/06/25 01:46:47;;;;;;;20.98;16.13;;;17.20;99.90;;;;;;5057619;27;93287;-34
2023/06/25 01:49:12;;;;;;;20.73;18.05;;;17.20;99.90;;;;;;5058578;27;94552;-33
2023/06/25 01:51:38;;;;;;;18.15;14.77;;;17.20;99.90;;;;;;5057911;27;94745;-34
2023/06/25 01:54:04;;;;;;;24.88;17.70;;;17.10;99.90;;;;;;5057902;27;93935;-39
2023/06/25 01:56:29;;;;;;;20.45;16.83;;;17.20;99.90;;;;;;5057443;27;93317;-34
2023/06/25 01:58:55;;;;;;;19.42;16.75;;;17.10;99.90;;;;;;5058727;27;93663;-34
2023/06/25 02:01:21;;;;;;;19.95;16.58;;;17.10;99.90;;;;;;5057532;27;94921;-35
2023/06/25 02:03:47;;;;;;;19.55;17.08;;;17.10;99.90;;;;;;5057455;27;95117;-33
2023/06/25 02:06:14;;;;;;;19.80;17.70;;;17.10;99.90;;;;;;5057484;27;93066;-37
2023/06/25 02:08:40;;;;;;;20.33;17.80;;;17.10;99.90;;;;;;5057500;27;93476;-38
2023/06/25 02:11:08;;;;;;;19.55;17.50;;;17.00;99.90;;;;;;5057487;27;94933;-34
2023/06/25 02:13:35;;;;;;;20.50;18.42;;;17.00;99.90;;;;;;5057330;27;94722;-45
2023/06/25 02:16:01;;;;;;;21.48;18.65;;;17.10;99.90;;;;;;5057350;27;93506;-35
2023/06/25 02:18:28;;;;;;;25.02;19.58;;;17.00;99.90;;;;;;5056985;27;93555;-32
2023/06/25 02:20:54;;;;;;;28.08;20.90;;;17.00;99.90;;;;;;5057037;27;94373;-42
2023/06/25 02:23:19;;;;;;;24.90;19.13;;;16.90;99.90;;;;;;5057264;27;94831;-39
2023/06/25 02:25:45;;;;;;;20.23;16.70;;;16.90;99.90;;;;;;5043800;27;92363;-38
2023/06/25 02:28:11;;;;;;;25.33;20.27;;;16.90;99.90;;;;;;5057670;27;94476;-34
2023/06/25 02:30:36;;;;;;;23.50;18.58;;;16.90;99.90;;;;;;5055715;27;95860;-34
2023/06/25 02:33:02;;;;;;;24.80;20.52;;;16.90;99.90;;;;;;5057271;27;95324;-40
2023/06/25 02:35:28;;;;;;;26.48;20.45;;;16.90;99.90;;;;;;5055710;27;94409;-37
2023/06/25 02:37:54;;;;;;;25.60;21.27;;;16.90;99.90;;;;;;5057943;27;93200;-35
2023/06/25 02:40:20;;;;;;;23.92;20.33;;;16.80;99.90;;;;;;5056677;27;94763;-33
2023/06/25 02:42:46;;;;;;;25.33;20.70;;;16.80;99.90;;;;;;5055905;27;95736;-35
2023/06/25 02:45:12;;;;;;;22.77;19.05;;;16.80;99.90;;;;;;5056724;27;92221;-36
2023/06/25 02:47:37;;;;;;;24.65;19.20;;;16.80;99.90;;;;;;5057226;27;92352;-34
2023/06/25 02:50:03;;;;;;;19.67;17.52;;;16.70;99.90;;;;;;5056877;27;94655;-34
2023/06/25 02:52:29;;;;;;;22.92;20.05;;;16.70;99.90;;;;;;5056919;27;94468;-34
2023/06/25 02:54:54;;;;;;;24.77;21.55;;;16.70;99.90;;;;;;5055497;27;94744;-33
2023/06/25 02:57:23;;;;;;;25.85;21.55;;;16.80;99.90;;;;;;5056876;27;93747;-37
2023/06/25 02:59:49;;;;;;;24.60;20.52;;;16.70;99.90;;;;;;5056532;27;94510;-34
2023/06/25 03:02:14;;;;;;;31.45;24.90;;;16.70;99.90;;;;;;5056750;27;94735;-33
2023/06/25 03:04:40;;;;;;;31.13;23.25;;;16.70;99.90;;;;;;5056635;27;94071;-38
2023/06/25 03:07:06;;;;;;;25.77;22.33;;;16.70;99.90;;;;;;5056699;27;93824;-38
2023/06/25 03:09:32;;;;;;;25.67;21.50;;;16.70;99.90;;;;;;5055904;27;94600;-37
2023/06/25 03:11:57;;;;;;;28.13;20.25;;;16.60;99.90;;;;;;5038534;27;94273;-33
2023/06/25 03:14:23;;;;;;;26.90;22.42;;;16.60;99.90;;;;;;5056181;27;92423;-34
2023/06/25 03:16:49;;;;;;;24.63;21.10;;;16.60;99.90;;;;;;5038971;27;94243;-34
2023/06/25 03:19:14;;;;;;;25.08;22.38;;;16.60;99.90;;;;;;5054870;27;95912;-34
2023/06/25 03:21:40;;;;;;;29.15;22.15;;;16.60;99.90;;;;;;5056175;27;96236;-36
2023/06/25 03:24:05;;;;;;;27.30;21.95;;;16.60;99.90;;;;;;5056381;27;93074;-34
2023/06/25 03:26:31;;;;;;;25.85;22.15;;;16.60;99.90;;;;;;5056273;27;93693;-34
2023/06/25 03:28:58;;;;;;;31.20;22.52;;;16.60;99.90;;;;;;5056097;27;94941;-35
2023/06/25 03:31:24;;;;;;;26.52;22.35;;;16.60;99.90;;;;;;5055229;27;94609;-36
2023/06/25 03:33:50;;;;;;;26.02;21.98;;;16.60;99.90;;;;;;5055925;27;94457;-44
2023/06/25 03:36:16;;;;;;;31.42;25.05;;;16.60;99.90;;;;;;5056409;27;93254;-38
2023/06/25 03:38:42;;;;;;;26.23;22.35;;;16.60;99.90;;;;;;5055879;27;95159;-33
2023/06/25 03:41:07;;;;;;;27.05;23.05;;;16.60;99.90;;;;;;5056078;27;94543;-36
2023/06/25 03:43:33;;;;;;;30.15;23.17;;;16.60;99.90;;;;;;5055270;27;93709;-36
2023/06/25 03:45:58;;;;;;;25.23;21.83;;;16.60;99.90;;;;;;5056792;27;94521;-34
2023/06/25 03:48:24;;;;;;;29.70;25.02;;;16.60;99.90;;;;;;5055938;27;95823;-34
2023/06/25 03:50:50;;;;;;;29.92;24.33;;;16.60;99.90;;;;;;5056273;27;94485;-34
2023/06/25 03:53:19;;;;;;;35.42;28.35;;;16.60;99.90;;;;;;5056106;27;92869;-37
2023/06/25 03:55:45;;;;;;;31.15;25.27;;;16.60;99.90;;;;;;5059235;27;93354;-34
2023/06/25 03:58:11;;;;;;;26.52;22.50;;;16.70;99.90;;;;;;5058973;27;94520;-35
2023/06/25 04:00:37;;;;;;;25.35;21.92;;;16.70;99.90;;;;;;5059943;27;94881;-39
2023/06/25 04:03:03;;;;;;;27.30;22.33;;;16.60;99.90;;;;;;5059334;27;94403;-39
2023/06/25 04:05:28;;;;;;;27.02;21.77;;;16.70;99.90;;;;;;5059052;27;92386;-39
2023/06/25 04:07:54;;;;;;;27.30;23.38;;;16.70;99.90;;;;;;5059023;27;96866;-35
2023/06/25 04:10:20;;;;;;;26.63;23.67;;;16.70;99.90;;;;;;5059247;27;95699;-36
2023/06/25 04:12:45;;;;;;;28.60;24.45;;;16.70;99.90;;;;;;5059890;27;92310;-37
2023/06/25 04:15:11;;;;;;;31.85;26.60;;;16.80;99.90;;;;;;5058555;27;93178;-35
2023/06/25 04:17:39;;;;;;;31.73;25.63;;;16.80;99.90;;;;;;5059539;27;94722;-36
2023/06/25 04:20:05;;;;;;;28.88;25.75;;;16.80;99.90;;;;;;5059302;27;94588;-40
2023/06/25 04:22:31;;;;;;;33.00;26.40;;;16.90;99.90;;;;;;5059339;27;93068;-38
2023/06/25 04:24:57;;;;;;;28.70;25.63;;;17.00;99.90;;;;;;5059653;27;92699;-39
2023/06/25 04:27:22;;;;;;;29.80;26.60;;;17.00;99.90;;;;;;5058647;27;94578;-35
2023/06/25 04:29:48;;;;;;;29.67;26.48;;;17.10;99.90;;;;;;5058560;27;94984;-39
2023/06/25 04:32:13;;;;;;;30.20;26.52;;;17.10;99.90;;;;;;5040685;27;95893;-35
2023/06/25 04:34:39;;;;;;;30.73;27.25;;;17.20;99.90;;;;;;5085223;22;93426;-33
2023/06/25 04:37:05;;;;;;;28.92;24.95;;;17.30;99.90;;;;;;5038815;27;95491;-38
2023/06/25 04:39:31;;;;;;;32.15;25.10;;;17.50;99.90;;;;;;5042757;27;96500;-36
2023/06/25 04:41:56;;;;;;;29.90;25.15;;;17.60;99.90;;;;;;5058466;27;92517;-36
2023/06/25 04:44:22;;;;;;;28.52;23.90;;;17.70;99.90;;;;;;5059243;27;92272;-34
2023/06/25 04:46:48;;;;;;;30.10;24.00;;;17.90;99.90;;;;;;5058339;27;95069;-35
2023/06/25 04:49:14;;;;;;;29.00;25.63;;;18.00;99.90;;;;;;5058964;27;95069;-37
2023/06/25 04:51:39;;;;;;;27.20;23.88;;;18.10;99.90;;;;;;5058820;27;94546;-33
2023/06/25 04:54:05;;;;;;;28.17;23.20;;;18.30;99.90;;;;;;5058752;27;93382;-45
2023/06/25 04:56:30;;;;;;;25.63;22.80;;;18.40;99.90;;;;;;5057402;27;95575;-35
2023/06/25 04:58:56;;;;;;;23.92;21.35;;;18.50;99.90;;;;;;5058153;27;95238;-43
2023/06/25 05:01:23;;;;;;;25.10;22.55;;;18.60;99.90;;;;;;5058507;27;93390;-34
2023/06/25 05:03:49;;;;;;;27.17;23.10;;;18.70;99.90;;;;;;5039749;27;94545;-38
2023/06/25 05:06:14;;;;;;;25.13;22.45;;;18.80;99.90;;;;;;5057825;27;94757;-42
2023/06/25 05:08:40;;;;;;;24.58;22.13;;;18.90;99.90;;;;;;5040130;27;94437;-38
2023/06/25 05:11:05;;;;;;;26.23;23.42;;;19.00;99.90;;;;;;5058591;27;93535;-43
2023/06/25 05:13:31;;;;;;;26.40;23.60;;;19.20;99.90;;;;;;5059514;27;92800;-34
2023/06/25 05:15:57;;;;;;;24.38;21.60;;;19.20;99.90;;;;;;5057698;27;94414;-34
2023/06/25 05:18:23;;;;;;;25.52;22.88;;;19.20;99.90;;;;;;5058502;27;94622;-41
2023/06/25 05:20:48;;;;;;;26.25;23.42;;;19.30;99.90;;;;;;5057612;27;95704;-42
2023/06/25 05:23:14;;;;;;;23.58;21.15;;;19.40;99.90;;;;;;5057607;27;92732;-37
2023/06/25 05:25:40;;;;;;;23.92;21.35;;;19.50;99.90;;;;;;5057647;27;93925;-35
2023/06/25 05:28:05;;;;;;;28.75;20.15;;;19.70;99.90;;;;;;5057939;27;94195;-38
2023/06/25 05:30:32;;;;;;;20.33;18.20;;;19.90;99.90;;;;;;5057558;27;92706;-38
2023/06/25 05:32:57;;;;;;;22.88;19.67;;;20.00;99.90;;;;;;5058248;27;94477;-36
2023/06/25 05:35:23;;;;;;;23.25;20.92;;;20.10;99.90;;;;;;5057204;27;94771;-47
2023/06/25 05:37:49;;;;;;;25.38;19.33;;;20.10;99.90;;;;;;5058736;27;94426;-37
2023/06/25 05:40:16;;;;;;;19.05;17.10;;;20.30;99.90;;;;;;5041892;27;94060;-43
2023/06/25 05:42:42;;;;;;;20.15;18.17;;;20.30;99.90;;;;;;5048929;27;92814;-37
2023/06/25 05:45:08;;;;;;;20.75;17.65;;;20.40;99.90;;;;;;5038571;27;96106;-36
2023/06/25 05:47:34;;;;;;;22.02;18.30;;;20.60;99.90;;;;;;5057540;27;95552;-38
2023/06/25 05:50:00;;;;;;;21.35;19.10;;;20.80;99.90;;;;;;5058115;27;92910;-40
2023/06/25 05:52:26;;;;;;;19.70;16.85;;;20.90;99.90;;;;;;5057720;27;92246;-40
2023/06/25 05:54:52;;;;;;;20.92;17.88;;;21.00;99.90;;;;;;5039469;27;96664;-35
2023/06/25 05:57:18;;;;;;;19.65;17.52;;;21.20;99.90;;;;;;5057584;27;94936;-38
2023/06/25 05:59:44;;;;;;;19.67;17.58;;;21.20;99.90;;;;;;5057172;27;93146;-36
2023/06/25 06:02:10;;;;;;;19.70;16.98;;;21.40;99.90;;;;;;5058155;27;91389;-41
2023/06/25 06:04:36;;;;;;;22.25;17.55;;;21.50;99.90;;;;;;5056978;27;95328;-35
2023/06/25 06:07:01;;;;;;;20.17;17.63;;;21.70;99.90;;;;;;5056991;27;94230;-47
2023/06/25 06:09:28;;;;;;;20.20;18.15;;;22.00;99.90;;;;;;5056872;27;95209;-38
2023/06/25 06:11:53;;;;;;;27.60;17.33;;;22.10;99.90;;;;;;5057246;27;92203;-34
2023/06/25 06:14:19;;;;;;;17.45;15.75;;;22.50;99.90;;;;;;5057349;27;94753;-38
2023/06/25 06:16:44;;;;;;;19.95;16.73;;;22.80;99.90;;;;;;5056163;27;94986;-37
2023/06/25 06:19:10;;;;;;;19.70;17.60;;;22.90;99.90;;;;;;5057264;27;92809;-36
2023/06/25 06:21:36;;;;;;;22.20;18.10;;;23.00;99.90;;;;;;5057437;27;94652;-41
2023/06/25 06:24:01;;;;;;;22.55;17.13;;;23.00;99.90;;;;;;5056355;27;95049;-41
2023/06/25 06:26:27;;;;;;;19.27;17.20;;;23.30;99.90;;;;;;5057720;27;94038;-36
2023/06/25 06:28:53;;;;;;;20.38;17.13;;;23.40;99.90;;;;;;5056873;27;92717;-33
2023/06/25 06:31:20;;;;;;;20.45;18.42;;;23.20;99.90;;;;;;5057588;27;94564;-36
2023/06/25 06:33:45;;;;;;;20.75;18.33;;;23.30;99.90;;;;;;5038091;27;96128;-45
2023/06/25 06:36:12;;;;;;;20.13;17.05;;;23.60;99.90;;;;;;5037349;27;95517;-47
2023/06/25 06:38:38;;;;;;;22.80;20.50;;;23.80;99.90;;;;;;5057278;27;92853;-35
2023/06/25 06:41:04;;;;;;;17.00;15.15;;;24.00;99.90;;;;;;5056698;27;93670;-40
2023/06/25 06:43:31;;;;;;;18.08;16.20;;;24.20;99.90;;;;;;5056853;27;95548;-37
2023/06/25 06:45:56;;;;;;;19.13;17.35;;;24.50;99.90;;;;;;5038624;27;94679;-35
2023/06/25 06:48:22;;;;;;;19.52;17.02;;;24.70;99.90;;;;;;5056673;27;93503;-35
2023/06/25 06:50:48;;;;;;;21.35;18.75;;;25.10;99.90;;;;;;5057539;27;92307;-39
2023/06/25 06:53:14;;;;;;;21.83;19.02;;;24.90;99.90;;;;;;5055877;27;95692;-37
2023/06/25 06:55:39;;;;;;;20.35;18.13;;;25.10;99.90;;;;;;5056906;27;95041;-36
2023/06/25 06:58:05;;;;;;;18.23;16.50;;;25.10;99.90;;;;;;5056816;27;94390;-34
2023/06/25 07:00:31;;;;;;;20.50;18.58;;;25.50;99.90;;;;;;5055626;27;93083;-35
2023/06/25 07:02:59;;;;;;;19.77;17.83;;;25.50;99.90;;;;;;5056439;27;95313;-44
2023/06/25 07:05:25;;;;;;;20.75;17.75;;;25.30;99.90;;;;;;5035108;27;94800;-35
2023/06/25 07:07:50;;;;;;;18.33;16.48;;;25.80;99.90;;;;;;5049831;27;93693;-35
2023/06/25 07:10:16;;;;;;;18.65;16.80;;;26.20;99.90;;;;;;5045323;27;94112;-38
2023/06/25 07:12:42;;;;;;;20.45;18.48;;;26.30;99.90;;;;;;5037535;27;94536;-37
2023/06/25 07:15:08;;;;;;;20.67;18.52;;;26.50;99.90;;;;;;5053208;27;94558;-45
2023/06/25 07:17:33;;;;;;;20.25;17.90;;;26.30;99.90;;;;;;5055011;27;93421;-38
2023/06/25 07:19:59;;;;;;;20.15;18.25;;;26.30;99.90;;;;;;5053046;27;93114;-35
2023/06/25 07:22:25;;;;;;;20.50;18.33;;;25.90;99.90;;;;;;5052736;27;95722;-40
2023/06/25 07:24:51;;;;;;;20.08;18.20;;;25.90;99.90;;;;;;5052836;27;94303;-36
2023/06/25 07:27:16;;;;;;;22.73;19.35;;;26.30;99.90;;;;;;5053954;27;93104;-38
2023/06/25 07:29:42;;;;;;;18.85;17.13;;;26.70;99.90;;;;;;5054344;27;94108;-35
2023/06/25 07:32:08;;;;;;;21.20;18.92;;;26.90;99.90;;;;;;5053343;27;94315;-43
2023/06/25 07:34:34;;;;;;;19.80;18.10;;;26.50;99.90;;;;;;5053522;27;94766;-32
2023/06/25 07:37:00;;;;;;;20.48;18.30;;;26.50;99.90;;;;;;5053770;27;93338;-38
2023/06/25 07:39:29;;;;;;;20.15;18.35;;;26.90;99.90;;;;;;5054509;27;91979;-35
2023/06/25 07:41:56;;;;;;;20.80;18.98;;;27.00;99.90;;;;;;5053907;27;94645;-33
2023/06/25 07:44:22;;;;;;;17.65;16.02;;;27.20;99.90;;;;;;5053839;27;94839;-33
2023/06/25 07:46:48;;;;;;;19.88;17.73;;;27.50;99.90;;;;;;5053305;27;93417;-35
2023/06/25 07:49:14;;;;;;;20.27;18.42;;;27.50;99.90;;;;;;5035074;27;94084;-33
2023/06/25 07:51:40;;;;;;;17.20;15.60;;;27.20;99.90;;;;;;5052510;27;94915;-34
2023/06/25 07:54:06;;;;;;;18.13;16.45;;;27.50;99.90;;;;;;5052995;27;94212;-40
2023/06/25 07:56:31;;;;;;;18.77;16.90;;;27.80;99.90;;;;;;5053904;27;92517;-42
2023/06/25 07:58:57;;;;;;;19.75;17.77;;;27.60;99.90;;;;;;5053415;27;95070;-34
2023/06/25 08:01:23;;;;;;;18.58;16.88;;;27.60;99.90;;;;;;5052718;27;95286;-40
2023/06/25 08:03:48;;;;;;;16.80;15.27;;;28.00;99.90;;;;;;5053197;27;94218;-35
2023/06/25 08:06:14;;;;;;;21.23;18.35;;;28.00;99.90;;;;;;5053253;27;92171;-33
2023/06/25 08:08:39;;;;;;;19.08;17.27;;;28.00;99.90;;;;;;5053878;27;94339;-37
2023/06/25 08:11:05;;;;;;;18.50;16.85;;;27.90;99.90;;;;;;5052976;27;95697;-38
2023/06/25 08:13:31;;;;;;;20.65;15.45;;;27.90;99.90;;;;;;5053489;27;95457;-32
2023/06/25 08:15:56;;;;;;;19.90;16.63;;;28.20;99.90;;;;;;5052621;27;92276;-34
2023/06/25 08:18:22;;;;;;;16.58;14.93;;;28.50;99.90;;;;;;5053645;27;93357;-34
2023/06/25 08:20:48;;;;;;;16.05;14.48;;;28.70;99.90;;;;;;5052781;27;94769;-35
2023/06/25 08:23:13;;;;;;;16.30;14.52;;;28.90;99.90;;;;;;5051907;27;93601;-41
2023/06/25 08:25:39;;;;;;;19.95;15.85;;;28.80;99.90;;;;;;5054376;27;94466;-38
2023/06/25 08:28:04;;;;;;;16.90;14.82;;;29.00;99.70;;;;;;5052753;27;93165;-45
2023/06/25 08:30:30;;;;;;;15.50;14.18;;;28.60;99.90;;;;;;5052563;27;94614;-34
2023/06/25 08:32:56;;;;;;;14.98;13.48;;;28.70;99.00;;;;;;5053464;27;94893;-40
2023/06/25 08:35:22;;;;;;;15.38;13.98;;;28.80;96.20;;;;;;5051756;27;95807;-34
2023/06/25 08:37:47;;;;;;;17.25;15.60;;;28.60;94.70;;;;;;5052513;27;93388;-40
2023/06/25 08:40:13;;;;;;;13.85;12.65;;;28.50;97.90;;;;;;5052915;27;94597;-42
2023/06/25 08:42:41;;;;;;;13.00;11.82;;;28.20;98.10;;;;;;5056148;27;96009;-35
2023/06/25 08:45:08;;;;;;;15.05;12.57;;;28.60;99.90;;;;;;5053814;27;94357;-39
2023/06/25 08:47:39;;;;;;;14.82;13.48;;;28.60;89.50;;;;;;5037618;27;92237;-36
2023/06/25 08:50:08;;;;;;;15.23;13.05;;;28.40;88.90;;;;;;5054894;27;94972;-35
2023/06/25 08:52:35;;;;;;;16.13;14.63;;;28.70;94.20;;;;;;5055927;27;94814;-33
2023/06/25 08:55:00;;;;;;;15.43;14.02;;;28.50;92.30;;;;;;5037326;27;93046;-35
2023/06/25 08:57:26;;;;;;;14.60;13.07;;;28.80;88.00;;;;;;5056536;27;94634;-32
2023/06/25 08:59:52;;;;;;;13.40;11.85;;;28.90;82.10;;;;;;5055204;27;95382;-39
2023/06/25 09:02:18;;;;;;;13.45;12.25;;;29.00;91.60;;;;;;5055609;27;95504;-34
2023/06/25 09:04:46;;;;;;;11.35;10.35;;;28.90;81.40;;;;;;5055120;27;93328;-35
2023/06/25 09:07:16;;;;;;;12.95;11.75;;;29.10;83.50;;;;;;5055437;27;93562;-40
2023/06/25 09:09:43;;;;;;;13.90;12.60;;;29.30;78.80;;;;;;5055508;27;95321;-37
2023/06/25 09:12:10;;;;;;;12.27;11.13;;;29.10;77.90;;;;;;5055661;27;94660;-40
2023/06/25 09:14:36;;;;;;;11.67;10.57;;;29.10;80.50;;;;;;5056325;27;94196;-37
2023/06/25 09:17:02;;;;;;;11.10;9.30;;;29.10;75.90;;;;;;5055342;27;92216;-33
2023/06/25 09:19:28;;;;;;;11.35;9.98;;;29.20;75.90;;;;;;5056507;27;94671;-39
2023/06/25 09:21:54;;;;;;;11.02;10.02;;;29.00;72.10;;;;;;5055849;27;95329;-37
2023/06/25 09:24:21;;;;;;;9.90;8.90;;;29.20;71.30;;;;;;5054561;27;94205;-36
2023/06/25 09:26:52;;;;;;;11.30;7.80;;;29.10;70.10;;;;;;5056830;27;93204;-37
2023/06/25 09:29:19;;;;;;;8.80;8.00;;;29.40;68.80;;;;;;5056145;27;94464;-35
2023/06/25 09:31:46;;;;;;;9.48;8.68;;;29.50;67.00;;;;;;5057110;27;94559;-34
2023/06/25 09:34:14;;;;;;;9.25;8.43;;;29.30;67.30;;;;;;5042508;27;94526;-37
2023/06/25 09:36:40;;;;;;;8.65;7.82;;;29.30;67.80;;;;;;5037365;27;93899;-39
2023/06/25 09:39:08;;;;;;;10.23;9.30;;;29.50;68.70;;;;;;5055838;27;95028;-34
2023/06/25 09:41:35;;;;;;;11.13;8.93;;;29.80;66.80;;;;;;5056769;27;93608;-33
2023/06/25 09:44:04;;;;;;;7.88;7.18;;;29.40;64.80;;;;;;5055551;27;94508;-36
2023/06/25 09:46:33;;;;;;;8.75;7.95;;;29.50;66.60;;;;;;5055699;27;94053;-33
2023/06/25 09:49:01;;;;;;;7.95;7.05;;;29.50;63.80;;;;;;5055248;27;96366;-34
2023/06/25 09:51:49;;;;;;;8.32;6.43;;;29.50;65.50;;;;;;5055697;27;95761;-36
2023/06/25 09:54:18;;;;;;;7.38;6.78;;;29.70;66.00;;;;;;5056569;27;92793;-34
2023/06/25 09:56:47;;;;;;;7.00;6.40;;;29.50;62.60;;;;;;5042596;27;92832;-41
2023/06/25 09:59:13;;;;;;;8.63;7.28;;;29.70;62.90;;;;;;5052245;27;95376;-36
2023/06/25 10:01:39;;;;;;;8.18;7.38;;;29.70;63.80;;;;;;5054919;27;93931;-35
2023/06/25 10:04:05;;;;;;;6.72;6.20;;;30.00;64.30;;;;;;5055689;27;92493;-42
2023/06/25 10:06:32;;;;;;;7.43;6.72;;;30.10;64.40;;;;;;5055911;27;92037;-33
2023/06/25 10:08:57;;;;;;;7.18;6.18;;;30.10;63.00;;;;;;5054947;27;94624;-42
2023/06/25 10:11:23;;;;;;;8.23;7.47;;;30.00;62.40;;;;;;5052877;27;94701;-37
2023/06/25 10:13:51;;;;;;;7.78;6.43;;;29.70;61.50;;;;;;5055018;27;93983;-35
2023/06/25 10:16:19;;;;;;;7.35;6.65;;;29.70;62.90;;;;;;5054533;27;93221;-42
2023/06/25 10:18:46;;;;;;;;;;;29.80;60.60;;;;;;5056252;27;94316;-36
2023/06/25 10:21:19;;;;;;;6.88;6.28;;;29.90;62.40;;;;;;5056472;27;94236;-33
2023/06/25 10:23:56;;;;;;;6.30;5.70;;;29.90;61.20;;;;;;5055579;27;92318;-36
2023/06/25 10:26:29;;;;;;;9.88;7.95;;;29.80;63.60;;;;;;5054947;27;94316;-42
2023/06/25 10:28:55;;;;;;;7.80;7.00;;;30.00;63.00;;;;;;5055529;27;94743;-35
2023/06/25 10:31:21;;;;;;;7.43;6.72;;;30.00;62.60;;;;;;5055269;27;93117;-38
2023/06/25 10:33:47;;;;;;;7.50;6.80;;;29.70;61.50;;;;;;5055729;27;93795;-37
2023/06/25 10:36:13;;;;;;;6.97;6.28;;;29.70;60.70;;;;;;5054921;27;94011;-34
2023/06/25 10:38:39;;;;;;;6.80;6.20;;;29.70;59.30;;;;;;5054950;27;95475;-45
2023/06/25 10:41:05;;;;;;;7.18;6.47;;;29.70;59.90;;;;;;5056156;27;96590;-35
2023/06/25 10:43:31;;;;;;;6.22;5.70;;;29.60;59.10;;;;;;5054811;27;92875;-35
2023/06/25 10:45:58;;;;;;;7.70;5.55;;;29.80;60.40;;;;;;5055434;27;94972;-39
2023/06/25 10:48:24;;;;;;;6.87;6.10;;;29.90;59.50;;;;;;5055242;27;95701;-35
2023/06/25 10:50:52;;;;;;;7.43;6.23;;;29.90;58.90;;;;;;5055151;27;94217;-36
2023/06/25 10:53:22;;;;;;;7.78;7.00;;;29.80;60.00;;;;;;5051709;27;92972;-36
2023/06/25 10:55:53;;;;;;;5.85;5.28;;;29.60;59.70;;;;;;5045976;27;92446;-40
2023/06/25 10:58:20;;;;;;;5.43;4.93;;;29.60;59.30;;;;;;5054018;27;94701;-42
2023/06/25 11:00:56;;;;;;;9.63;6.10;;;29.70;58.10;;;;;;5055430;27;95813;-34
2023/06/25 11:03:23;;;;;;;5.43;4.93;;;29.80;57.00;;;;;;5054169;27;94439;-36
2023/06/25 11:05:49;;;;;;;7.70;5.60;;;29.90;57.90;;;;;;5053753;27;93645;-39
2023/06/25 11:08:15;;;;;;;6.30;5.68;;;29.90;57.20;;;;;;5051414;27;94739;-37
2023/06/25 11:10:42;;;;;;;5.97;5.38;;;29.80;57.10;;;;;;5053434;27;94605;-40
2023/06/25 11:13:11;;;;;;;5.53;5.03;;;29.70;57.20;;;;;;5054277;27;92236;-39
2023/06/25 11:15:40;;;;;;;5.57;4.90;;;29.90;58.00;;;;;;5054001;27;93785;-33
2023/06/25 11:18:09;;;;;;;7.32;4.93;;;29.90;57.80;;;;;;5055022;27;95040;-36
2023/06/25 11:20:38;;;;;;;5.15;4.65;;;30.00;56.80;;;;;;5054295;27;94375;-34
2023/06/25 11:23:04;;;;;;;6.00;5.50;;;30.00;56.40;;;;;;5055050;27;94174;-44
2023/06/25 11:25:30;;;;;;;5.88;5.38;;;29.90;57.30;;;;;;5054034;27;93787;-37
2023/06/25 11:28:07;;;;;;;9.57;4.60;;;29.90;56.70;;;;;;5034943;27;95329;-34
2023/06/25 11:30:33;;;;;;;12.90;5.45;;;29.90;55.80;;;;;;5054546;27;96544;-35
2023/06/25 11:33:15;;;;;;;5.60;5.10;;;30.00;57.30;;;;;;5055914;27;93435;-34
2023/06/25 11:35:49;;;;;;;7.15;5.30;;;30.00;57.50;;;;;;5036308;27;94136;-44
2023/06/25 11:38:28;;;;;;;5.88;5.38;;;30.00;57.70;;;;;;5054138;27;95008;-38
2023/06/25 11:40:57;;;;;;;6.03;5.35;;;29.90;57.00;;;;;;5053525;27;93908;-34
2023/06/25 11:43:23;;;;;;;5.55;5.05;;;29.90;57.80;;;;;;5053889;27;92970;-38
2023/06/25 11:45:49;;;;;;;5.80;5.30;;;30.10;57.00;;;;;;5054758;27;94077;-37
2023/06/25 11:48:15;;;;;;;5.55;5.05;;;30.00;56.80;;;;;;5054035;27;94892;-35
2023/06/25 11:50:43;;;;;;;6.67;4.90;;;30.00;57.40;;;;;;5053840;27;95219;-33
2023/06/25 11:53:09;;;;;;;6.00;5.45;;;30.00;57.80;;;;;;5054210;27;95162;-41
2023/06/25 11:55:34;;;;;;;6.57;5.97;;;29.90;57.10;;;;;;5053952;27;92787;-36
2023/06/25 11:58:00;;;;;;;5.90;5.40;;;29.80;57.60;;;;;;5053586;27;94067;-38
2023/06/25 12:00:26;;;;;;;5.57;5.07;;;29.80;57.40;;;;;;5054023;27;94366;-39
2023/06/25 12:02:52;;;;;;;8.10;5.55;;;29.80;59.00;;;;;;5053846;27;92818;-40
2023/06/25 12:05:17;;;;;;;5.82;5.32;;;29.80;58.30;;;;;;5034996;27;94511;-36
2023/06/25 12:07:43;;;;;;;5.82;5.30;;;29.80;58.80;;;;;;5053912;27;94374;-36
2023/06/25 12:10:09;;;;;;;5.57;5.10;;;30.00;57.30;;;;;;5054154;27;93709;-34
2023/06/25 12:12:34;;;;;;;6.78;5.68;;;30.00;58.00;;;;;;5054495;27;93350;-34
2023/06/25 12:15:00;;;;;;;8.18;6.85;;;30.00;58.30;;;;;;5053624;27;93865;-38
2023/06/25 12:17:26;;;;;;;7.57;6.75;;;29.90;58.80;;;;;;5056124;27;94986;-36
2023/06/25 12:19:51;;;;;;;6.70;6.07;;;29.70;58.70;;;;;;5057663;27;96642;-33
2023/06/25 12:22:17;;;;;;;6.82;6.13;;;29.60;59.10;;;;;;5057770;27;93416;-39
2023/06/25 12:24:43;;;;;;;6.70;6.07;;;29.80;59.40;;;;;;5047648;27;93532;-35
2023/06/25 12:27:08;;;;;;;7.40;6.05;;;29.70;58.00;;;;;;5052703;27;94574;-38
2023/06/25 12:29:34;;;;;;;7.38;6.68;;;29.70;59.00;;;;;;5057272;27;94946;-37